Date,TemperatureHighF,TemperatureAvgF,TemperatureLowF,DewpointHighF,DewpointAvgF,DewpointLowF,HumidityHigh,HumidityAvg,HumidityLow,PressureMaxIn,PressureMinIn,WindSpeedMaxMPH,WindSpeedAvgMPH,GustSpeedMaxMPH,PrecipitationSumIn
2013-1-1,14,-1,-18,9,-9,-26,81,68,59,0.00,40.00,4,2,11,0.00
2013-1-2,19,17,14,16,13,9,90,85,80,0.00,40.00,6,4,12,0.00
2013-1-3,22,16,10,15,8,2,89,74,49,0.00,40.00,8,4,17,0.00
2013-1-4,32,15,2,15,8,-3,86,74,49,0.00,40.00,6,2,17,0.03
2013-1-5,29,13,0,18,6,-5,83,73,51,0.00,40.00,4,1,9,0.01
2013-1-6,26,17,6,18,8,1,82,69,40,0.00,40.00,8,2,17,0.00
2013-1-7,38,27,11,23,18,5,91,71,53,0.00,40.00,8,4,16,0.01
2013-1-8,37,21,4,27,15,-1,91,79,59,0.00,40.00,8,3,21,0.01
2013-1-9,35,29,13,26,20,10,87,70,50,0.00,40.00,14,6,31,0.00
2013-1-10,43,30,12,32,19,9,96,67,35,0.00,40.00,12,4,21,0.32
2013-1-11,40,37,33,39,36,32,99,98,96,0.00,40.00,6,4,14,0.36
2013-1-12,40,20,10,39,14,2,98,77,64,0.00,40.00,11,8,25,0.06
2013-1-13,10,5,-1,2,-2,-6,79,73,63,0.00,40.00,6,3,11,0.01
2013-1-14,14,4,-6,2,-4,-12,80,70,51,0.00,40.00,7,2,14,0.00
2013-1-15,29,15,-1,13,6,-6,84,69,41,0.00,40.00,8,3,18,0.00
2013-1-16,31,23,8,26,12,-10,92,64,31,0.00,40.00,10,6,22,0.00
2013-1-17,15,6,-3,1,-5,-10,80,60,43,0.00,40.00,6,3,13,0.00
2013-1-18,34,20,1,24,14,-4,85,77,63,0.00,40.00,6,2,11,0.07
2013-1-19,35,18,3,26,11,-9,91,73,45,0.00,40.00,18,6,33,0.04
2013-1-20,5,-2,-9,-9,-12,-16,72,61,50,0.00,40.00,8,5,19,0.00
2013-1-21,-4,-10,-22,-15,-24,-31,69,52,35,0.00,40.00,9,5,20,0.00
2013-1-22,-2,-13,-26,-14,-24,-35,71,57,43,0.00,40.00,7,2,13,0.00
2013-1-23,12,-1,-13,1,-12,-24,75,59,33,0.00,40.00,12,4,27,0.00
2013-1-24,8,-4,-15,-3,-15,-24,67,58,47,0.00,40.00,6,3,13,0.00
2013-1-25,19,12,-3,11,3,-9,83,67,52,0.00,40.00,9,6,18,0.00
2013-1-26,18,6,-13,6,-5,-20,76,62,45,0.00,40.00,5,2,11,0.00
2013-1-27,34,25,17,29,17,6,96,73,50,0.00,40.00,6,3,12,0.00
2013-1-28,33,28,19,31,27,17,96,93,86,0.00,40.00,4,1,8,0.09
2013-1-29,35,31,26,31,27,18,97,86,70,0.00,40.00,10,4,19,0.09
2013-1-30,26,16,9,18,7,1,82,69,58,0.00,40.00,11,8,21,0.02
2013-1-31,9,2,-8,1,-11,-18,68,53,45,0.00,40.00,11,8,23,0.00